Time;durP1;ratioP1;P1;durP2;ratioP2;P2;SDS_P1;SDS_P2;PMS_P1;PMS_P2;Temp;Humidity;BMP_temperature;BMP_pressure;BME280_temperature;BME280_humidity;BME280_pressure;Samples;Min_cycle;Max_cycle;Signal;HPM_P1;HPM_P2
2022/01/16 00:00:40;;;;;;;72.00;32.47;;;;;;;;;;4965998;28;20434;-80
2022/01/16 00:05:51;;;;;;;74.75;32.67;;;;;;;;;;4945203;28;20434;-79
2022/01/16 00:08:17;;;;;;;74.35;33.95;;;;;;;;;;4945792;29;20445;-79
2022/01/16 00:10:43;;;;;;;72.60;33.15;;;;;;;;;;4928892;29;20459;-80
2022/01/16 00:13:09;;;;;;;81.95;33.53;;;;;;;;;;4962073;28;20437;-79
2022/01/16 00:15:36;;;;;;;91.65;36.50;;;;;;;;;;4927346;29;20549;-79
2022/01/16 00:20:32;;;;;;;83.53;36.15;;;;;;;;;;4956908;28;20513;-79
2022/01/16 00:23:09;;;;;;;101.60;38.58;;;;;;;;;;4945860;29;20433;-77
2022/01/16 00:25:35;;;;;;;96.05;38.75;;;;;;;;;;4944059;29;20433;-79
2022/01/16 00:28:01;;;;;;;98.00;39.40;;;;;;;;;;4942915;29;20492;-80
2022/01/16 00:30:28;;;;;;;101.00;39.10;;;;;;;;;;4945648;29;20430;-80
2022/01/16 00:32:59;;;;;;;96.93;38.58;;;;;;;;;;4944052;29;20437;-80
2022/01/16 00:35:25;;;;;;;106.20;39.97;;;;;;;;;;4958433;28;20980;-79
2022/01/16 00:37:52;;;;;;;102.93;40.92;;;;;;;;;;4942746;29;20430;-79
2022/01/16 00:40:18;;;;;;;100.20;40.45;;;;;;;;;;4959592;28;20429;-80
2022/01/16 00:42:44;;;;;;;103.88;41.22;;;;;;;;;;4943265;29;20465;-80
2022/01/16 00:45:11;;;;;;;95.55;40.33;;;;;;;;;;4942388;28;20430;-80
2022/01/16 00:47:37;;;;;;;98.68;39.28;;;;;;;;;;4940965;28;20497;-79
2022/01/16 00:50:04;;;;;;;96.82;40.88;;;;;;;;;;4929460;29;20427;-80
2022/01/16 00:52:30;;;;;;;93.80;40.05;;;;;;;;;;4932241;29;20630;-80
2022/01/16 00:55:02;;;;;;;99.10;40.13;;;;;;;;;;4904529;29;20448;-80
2022/01/16 00:57:28;;;;;;;91.03;39.83;;;;;;;;;;4905804;29;20467;-79
2022/01/16 00:59:54;;;;;;;92.13;40.20;;;;;;;;;;4892639;29;20443;-80
2022/01/16 01:02:21;;;;;;;90.88;40.10;;;;;;;;;;4915930;29;20424;-79
2022/01/16 01:04:47;;;;;;;95.43;40.13;;;;;;;;;;4901802;29;20527;-79
2022/01/16 01:07:14;;;;;;;91.68;40.30;;;;;;;;;;4907761;29;20516;-80
2022/01/16 01:09:39;;;;;;;96.10;42.88;;;2.40;99.90;;;;;;4921231;29;20500;-80
2022/01/16 01:12:06;;;;;;;93.00;40.42;;;;;;;;;;4904481;29;20469;-79
2022/01/16 01:17:23;;;;;;;96.28;41.15;;;;;;;;;;4952976;28;20432;-79
2022/01/16 01:19:49;;;;;;;98.17;41.73;;;;;;;;;;4904998;29;20435;-79
2022/01/16 01:22:15;;;;;;;98.85;41.33;;;;;;;;;;4904978;29;20428;-80
2022/01/16 01:24:42;;;;;;;97.05;41.30;;;;;;;;;;4904145;29;20459;-81
2022/01/16 01:27:23;;;;;;;101.63;41.78;;;;;;;;;;4922689;29;20435;-80
2022/01/16 01:29:58;;;;;;;97.93;41.47;;;;;;;;;;4913995;29;20475;-80
2022/01/16 01:32:24;;;;;;;95.57;41.20;;;;;;;;;;4924337;29;20444;-79
2022/01/16 01:34:50;;;;;;;106.68;42.05;;;;;;;;;;4906237;29;20507;-79
2022/01/16 01:37:16;;;;;;;108.78;43.65;;;;;;;;;;4923777;29;20431;-81
2022/01/16 01:39:42;;;;;;;107.40;42.73;;;;;;;;;;4915101;29;20669;-80
2022/01/16 01:42:12;;;;;;;111.68;43.50;;;;;;;;;;4906118;29;20462;-79
2022/01/16 01:52:57;;;;;;;159.93;50.50;;;2.30;99.90;;;;;;4938023;29;20911;-79
2022/01/16 01:55:24;;;;;;;178.40;52.75;;;;;;;;;;4933835;29;20440;-79
2022/01/16 01:57:51;;;;;;;172.93;53.13;;;;;;;;;;4905029;29;20435;-79
2022/01/16 02:00:18;;;;;;;196.87;54.57;;;;;;;;;;4921188;29;20432;-79
2022/01/16 02:05:30;;;;;;;174.52;52.10;;;;;;;;;;4908762;29;20452;-79
2022/01/16 02:07:56;;;;;;;189.40;53.95;;;;;;;;;;4923203;29;20467;-79
2022/01/16 02:10:23;;;;;;;209.05;56.45;;;;;;;;;;4915424;29;20447;-80
2022/01/16 02:12:56;;;;;;;427.17;82.37;;;;;;;;;;4907993;29;20442;-81
2022/01/16 02:27:58;;;;;;;229.57;58.22;;;;;;;;;;4920727;29;20443;-81
2022/01/16 02:34:42;;;;;;;456.10;81.13;;;;;;;;;;4936813;29;20510;-80
2022/01/16 02:37:12;;;;;;;211.80;56.25;;;;;;;;;;4907512;29;20432;-80
2022/01/16 02:39:41;;;;;;;206.73;55.30;;;;;;;;;;4917125;29;20470;-79
2022/01/16 02:42:08;;;;;;;214.55;55.78;;;;;;;;;;4921312;29;20454;-80
2022/01/16 02:44:43;;;;;;;204.98;55.92;;;;;;;;;;4918617;29;20936;-80
2022/01/16 02:47:13;;;;;;;193.32;54.10;;;;;;;;;;4934142;29;20421;-80
2022/01/16 02:49:41;;;;;;;179.77;52.08;;;;;;;;;;4918981;29;20440;-80
2022/01/16 02:52:09;;;;;;;177.77;51.50;;;;;;;;;;4924946;29;20966;-79
2022/01/16 02:54:38;;;;;;;170.07;51.97;;;;;;;;;;4931189;29;20500;-80
2022/01/16 02:57:05;;;;;;;168.95;51.13;;;;;;;;;;4922351;29;20443;-80
2022/01/16 02:59:31;;;;;;;183.00;52.47;;;;;;;;;;4935394;29;20507;-80
2022/01/16 03:01:57;;;;;;;167.75;49.78;;;;;;;;;;4937252;29;20530;-80
2022/01/16 03:04:23;;;;;;;166.52;51.20;;;;;;;;;;4918210;29;20428;-80
2022/01/16 03:06:49;;;;;;;166.43;50.03;;;;;;;;;;4931314;29;20431;-80
2022/01/16 03:09:17;;;;;;;172.48;50.92;;;;;;;;;;4919316;29;20934;-79
2022/01/16 03:11:48;;;;;;;182.98;52.67;;;2.10;99.90;;;;;;4917157;29;20447;-80
2022/01/16 03:14:15;;;;;;;178.20;52.07;;;;;;;;;;4922603;29;21028;-80
2022/01/16 03:16:45;;;;;;;177.52;52.60;;;;;;;;;;4913897;29;21075;-80
2022/01/16 03:22:03;;;;;;;187.73;52.45;;;;;;;;;;4951608;28;20443;-80
2022/01/16 03:24:37;;;;;;;180.82;52.58;;;;;;;;;;4919025;29;20783;-81
2022/01/16 03:27:05;;;;;;;171.68;52.25;;;;;;;;;;4921246;29;20447;-80
2022/01/16 03:29:31;;;;;;;173.13;51.85;;;;;;;;;;4936357;29;20447;-80
2022/01/16 03:31:58;;;;;;;283.33;59.35;;;;;;;;;;4919386;29;20444;-80
2022/01/16 03:34:25;;;;;;;202.13;54.30;;;;;;;;;;4922549;29;20475;-81
2022/01/16 03:36:51;;;;;;;200.85;55.53;;;;;;;;;;4919354;29;20438;-80
2022/01/16 03:39:17;;;;;;;185.57;53.42;;;;;;;;;;4899192;29;20500;-80
2022/01/16 03:41:43;;;;;;;198.37;54.20;;;;;;;;;;4920103;29;20459;-81
2022/01/16 03:44:09;;;;;;;191.13;53.65;;;;;;;;;;4921239;29;20424;-80
2022/01/16 03:46:39;;;;;;;202.20;55.47;;;2.50;99.90;;;;;;4920982;29;20427;-80
2022/01/16 03:49:10;;;;;;;241.90;58.30;;;;;;;;;;4916087;29;20435;-80
2022/01/16 03:51:37;;;;;;;199.35;53.28;;;;;;;;;;4923041;29;20892;-80
2022/01/16 03:54:04;;;;;;;222.50;55.13;;;;;;;;;;4939131;29;22445;-81
2022/01/16 03:56:30;;;;;;;222.18;56.00;;;;;;;;;;4941136;29;20440;-81
2022/01/16 03:58:56;;;;;;;214.65;57.17;;;;;;;;;;4921793;29;20468;-80
2022/01/16 04:01:24;;;;;;;203.20;55.38;;;;;;;;;;4918577;29;21046;-81
2022/01/16 04:03:50;;;;;;;199.18;55.88;;;;;;;;;;4940482;29;20580;-80
2022/01/16 04:06:18;;;;;;;208.07;56.15;;;;;;;;;;4924224;29;20424;-82
2022/01/16 04:08:45;;;;;;;226.85;57.17;;;;;;;;;;4940406;29;20452;-80
2022/01/16 04:11:11;;;;;;;213.07;57.15;;;;;;;;;;4925570;29;20892;-80
2022/01/16 04:13:43;;;;;;;227.35;57.50;;;;;;;;;;4897573;29;20451;-81
2022/01/16 04:16:09;;;;;;;235.27;58.45;;;;;;;;;;4909194;29;20446;-81
2022/01/16 04:18:35;;;;;;;240.88;59.40;;;;;;;;;;4905724;29;22325;-80
2022/01/16 04:21:02;;;;;;;224.60;58.33;;;;;;;;;;4909616;29;20475;-81
2022/01/16 04:23:28;;;;;;;239.02;59.40;;;;;;;;;;4939188;29;20805;-81
2022/01/16 04:25:54;;;;;;;235.63;59.85;;;;;;;;;;4896657;29;20462;-80
2022/01/16 04:28:24;;;;;;;220.50;57.78;;;;;;;;;;4908864;29;20690;-80
2022/01/16 04:30:50;;;;;;;229.70;59.35;;;;;;;;;;4924689;29;20443;-80
2022/01/16 04:33:16;;;;;;;232.73;60.75;;;;;;;;;;4905705;29;20489;-80
2022/01/16 04:35:43;;;;;;;336.17;70.28;;;;;;;;;;4923715;29;21378;-80
2022/01/16 04:38:09;;;;;;;236.15;60.15;;;;;;;;;;4904652;29;20449;-80
2022/01/16 04:43:47;;;;;;;236.63;60.90;;;;;;;;;;4906360;29;20652;-81
2022/01/16 04:46:11;;;;;;;234.88;60.88;;;;;;;;;;4939959;29;20507;-81
2022/01/16 04:48:38;;;;;;;259.13;61.28;;;;;;;;;;4922010;29;20454;-82
2022/01/16 04:51:04;;;;;;;271.37;64.77;;;;;;;;;;4925375;29;20533;-81
2022/01/16 04:53:30;;;;;;;354.23;72.32;;;;;;;;;;4920531;29;20445;-81
2022/01/16 04:55:56;;;;;;;472.17;82.23;;;;;;;;;;4923116;29;20630;-81
2022/01/16 04:58:22;;;;;;;531.00;84.63;;;;;;;;;;4914118;29;20460;-81
2022/01/16 05:00:48;;;;;;;626.78;93.75;;;;;;;;;;4938837;29;20439;-81
2022/01/16 05:03:15;;;;;;;510.30;83.00;;;;;;;;;;4918611;29;20466;-81
2022/01/16 05:05:41;;;;;;;593.35;93.20;;;;;;;;;;4904642;29;20474;-81
2022/01/16 05:08:07;;;;;;;392.25;72.82;;;;;;;;;;4904379;29;20433;-80
2022/01/16 05:10:33;;;;;;;498.73;82.45;;;;;;;;;;4922288;29;20955;-80
2022/01/16 05:13:26;;;;;;;575.85;89.75;;;;;;;;;;4918007;29;20431;-80
2022/01/16 05:18:30;;;;;;;588.53;90.22;;;;;;;;;;4930194;29;20431;-80
2022/01/16 05:20:56;;;;;;;557.83;90.28;;;;;;;;;;4921077;29;20447;-80
2022/01/16 05:23:22;;;;;;;652.35;94.35;;;;;;;;;;4921363;29;20892;-80
2022/01/16 05:25:48;;;;;;;746.92;104.35;;;;;;;;;;4918109;29;20493;-79
2022/01/16 05:28:14;;;;;;;515.38;85.40;;;;;;;;;;4906214;29;20458;-80
2022/01/16 05:30:40;;;;;;;432.27;82.35;;;;;;;;;;4905515;29;20470;-80
2022/01/16 05:33:06;;;;;;;337.00;73.95;;;;;;;;;;4920245;29;20461;-80
2022/01/16 05:35:32;;;;;;;367.55;75.68;;;;;;;;;;4923496;29;20479;-80
2022/01/16 05:37:58;;;;;;;460.70;85.55;;;;;;;;;;4907043;29;20447;-80
2022/01/16 05:40:24;;;;;;;381.58;75.57;;;;;;;;;;4889800;29;20943;-80
2022/01/16 05:42:50;;;;;;;464.23;80.50;;;;;;;;;;4923436;29;20537;-80
2022/01/16 05:45:16;;;;;;;345.08;75.18;;;;;;;;;;4919494;29;20516;-80
2022/01/16 05:47:43;;;;;;;308.08;71.70;;;;;;;;;;4923750;29;20447;-79
2022/01/16 05:50:09;;;;;;;292.08;71.05;;;;;;;;;;4920164;29;20434;-80
2022/01/16 05:52:35;;;;;;;711.67;106.65;;;;;;;;;;4926277;29;20455;-80
2022/01/16 05:55:01;;;;;;;340.50;76.82;;;;;;;;;;4916302;29;20468;-80
2022/01/16 05:57:27;;;;;;;581.97;90.30;;;;;;;;;;4938176;29;20443;-82
2022/01/16 05:59:55;;;;;;;282.65;69.65;;;;;;;;;;4922948;29;20435;-81
2022/01/16 06:02:21;;;;;;;269.17;70.68;;;;;;;;;;4903889;29;20795;-81
2022/01/16 06:04:47;;;;;;;331.92;74.45;;;;;;;;;;4905403;29;20450;-81
2022/01/16 06:07:13;;;;;;;473.05;84.32;;;;;;;;;;4903695;29;20460;-81
2022/01/16 06:09:39;;;;;;;370.42;75.47;;;;;;;;;;4918859;29;20487;-81
2022/01/16 06:12:06;;;;;;;291.85;68.72;;;;;;;;;;4935754;29;20437;-81
2022/01/16 06:14:32;;;;;;;273.35;68.97;;;;;;;;;;4934015;29;20440;-81
2022/01/16 06:16:58;;;;;;;286.80;70.03;;;;;;;;;;4920031;29;20902;-80
2022/01/16 06:19:24;;;;;;;302.63;70.07;;;;;;;;;;4918856;29;20449;-81
2022/01/16 06:21:50;;;;;;;262.88;67.47;;;;;;;;;;4933543;29;20905;-81
2022/01/16 06:24:16;;;;;;;285.55;69.25;;;;;;;;;;4919625;29;20440;-81
2022/01/16 06:26:43;;;;;;;276.53;68.20;;;;;;;;;;4920649;29;20476;-81
2022/01/16 06:29:09;;;;;;;256.20;68.82;;;;;;;;;;4919210;29;20438;-80
2022/01/16 06:31:36;;;;;;;259.70;67.93;;;;;;;;;;4922673;29;20420;-80
2022/01/16 06:34:04;;;;;;;256.10;67.15;;;;;;;;;;4918037;29;20439;-79
2022/01/16 06:36:31;;;;;;;271.73;68.38;;;;;;;;;;4903067;29;20441;-81
2022/01/16 06:38:57;;;;;;;271.63;69.87;;;;;;;;;;4934553;29;20432;-80
2022/01/16 06:41:23;;;;;;;244.15;67.70;;;;;;;;;;4900338;29;20535;-81
2022/01/16 06:43:49;;;;;;;246.15;68.22;;;;;;;;;;4906477;29;20467;-81
2022/01/16 06:46:15;;;;;;;232.30;66.35;;;;;;;;;;4903337;29;20455;-80
2022/01/16 06:48:42;;;;;;;220.07;66.87;;;;;;;;;;4910762;29;20508;-81
2022/01/16 06:51:08;;;;;;;235.50;68.67;;;;;;;;;;4917238;29;20551;-80
2022/01/16 06:53:34;;;;;;;235.32;68.78;;;;;;;;;;4930489;29;20450;-75
2022/01/16 06:56:01;;;;;;;225.40;67.72;;;;;;;;;;4870571;29;20457;-81
2022/01/16 06:58:27;;;;;;;224.98;64.68;;;;;;;;;;4870352;29;20454;-80
2022/01/16 07:00:53;;;;;;;239.20;70.57;;;;;;;;;;4888248;29;20545;-81
2022/01/16 07:03:19;;;;;;;221.95;67.85;;;;;;;;;;4900937;29;20474;-81
2022/01/16 07:05:45;;;;;;;216.90;66.05;;;;;;;;;;4883763;29;20939;-81
2022/01/16 07:08:12;;;;;;;215.55;65.47;;;;;;;;;;4877351;29;20433;-81
2022/01/16 07:10:38;;;;;;;268.53;70.70;;;;;;;;;;4902007;29;20445;-81
2022/01/16 07:13:05;;;;;;;218.77;64.68;;;;;;;;;;4885205;29;20435;-81
2022/01/16 07:15:31;;;;;;;211.48;64.70;;;;;;;;;;4885319;29;20445;-80
2022/01/16 07:17:57;;;;;;;205.00;65.10;;;;;;;;;;4913019;29;20941;-80
2022/01/16 07:20:23;;;;;;;254.07;71.20;;;;;;;;;;4916139;29;20437;-80
2022/01/16 07:22:50;;;;;;;209.57;64.88;;;;;;;;;;4905312;29;20423;-80
2022/01/16 07:25:16;;;;;;;213.55;66.43;;;;;;;;;;4905229;29;20433;-80
2022/01/16 07:27:42;;;;;;;194.48;63.50;;;;;;;;;;4891316;29;21186;-80
2022/01/16 07:30:10;;;;;;;200.27;64.50;;;;;;;;;;4904414;29;20460;-80
2022/01/16 07:32:36;;;;;;;211.40;65.72;;;;;;;;;;4870838;29;21028;-80
2022/01/16 07:35:03;;;;;;;209.07;65.18;;;;;;;;;;4890330;29;20509;-81
2022/01/16 07:37:30;;;;;;;188.90;61.92;;;;;;;;;;4901490;29;20442;-81
2022/01/16 07:39:56;;;;;;;228.15;69.40;;;;;;;;;;4897394;29;20427;-78
2022/01/16 07:42:22;;;;;;;196.63;65.03;;;;;;;;;;4891080;29;20633;-80
2022/01/16 07:44:48;;;;;;;204.20;66.05;;;;;;;;;;4873279;29;20456;-80
2022/01/16 07:47:14;;;;;;;194.07;63.90;;;;;;;;;;4870237;29;20422;-79
2022/01/16 07:49:41;;;;;;;192.57;64.18;;;;;;;;;;4904258;29;20441;-79
2022/01/16 07:52:07;;;;;;;183.68;61.58;;;;;;;;;;4886335;29;20831;-80
2022/01/16 07:54:33;;;;;;;179.60;61.33;;;;;;;;;;4876096;29;20457;-80
2022/01/16 07:56:59;;;;;;;178.85;61.65;;;;;;;;;;4872601;29;20438;-80
2022/01/16 07:59:25;;;;;;;181.98;60.60;;;;;;;;;;4872612;29;20429;-80
2022/01/16 08:01:51;;;;;;;190.65;65.57;;;;;;;;;;4874139;29;20438;-80
2022/01/16 08:04:17;;;;;;;195.77;64.10;;;;;;;;;;4879990;29;20541;-80
2022/01/16 08:06:43;;;;;;;187.95;65.63;;;;;;;;;;4872781;29;20444;-81
2022/01/16 08:09:09;;;;;;;187.27;63.13;;;;;;;;;;4877957;29;20488;-80
2022/01/16 08:11:36;;;;;;;180.67;63.37;;;;;;;;;;4868186;29;20510;-80
2022/01/16 08:14:02;;;;;;;189.88;65.43;;;;;;;;;;4877510;29;20437;-80
2022/01/16 08:16:28;;;;;;;195.77;66.60;;;;;;;;;;4884782;29;20491;-78
2022/01/16 08:18:54;;;;;;;195.50;65.37;;;;;;;;;;4903309;29;20437;-80
2022/01/16 08:21:20;;;;;;;181.70;61.55;;;;;;;;;;4887401;29;20992;-80
2022/01/16 08:23:47;;;;;;;195.90;62.17;;;;;;;;;;4869298;29;20454;-80
2022/01/16 08:26:13;;;;;;;185.88;62.22;;;;;;;;;;4886424;29;20441;-80
2022/01/16 08:28:39;;;;;;;185.13;63.53;;;;;;;;;;4887385;29;20452;-81
2022/01/16 08:31:05;;;;;;;171.15;60.17;;;;;;;;;;4888865;29;20452;-81
2022/01/16 08:33:31;;;;;;;164.75;58.60;;;;;;;;;;4881227;29;20457;-81
2022/01/16 08:35:57;;;;;;;170.15;62.22;;;;;;;;;;4871213;29;20520;-81
2022/01/16 08:38:26;;;;;;;172.98;59.10;;;;;;;;;;4871913;29;20441;-80
2022/01/16 08:40:52;;;;;;;165.70;61.93;;;;;;;;;;4888539;29;20535;-79
2022/01/16 08:43:18;;;;;;;178.52;62.22;;;;;;;;;;4889244;29;20449;-82
2022/01/16 08:45:46;;;;;;;164.43;60.03;;;;;;;;;;4879193;29;20575;-81
2022/01/16 08:48:12;;;;;;;160.52;59.20;;;;;;;;;;4871231;29;20435;-81
2022/01/16 08:50:39;;;;;;;150.55;59.88;;;;;;;;;;4885840;29;20431;-80
2022/01/16 08:53:05;;;;;;;141.45;56.75;;;;;;;;;;4884449;29;20441;-81
2022/01/16 08:55:33;;;;;;;141.75;57.72;;;;;;;;;;4871778;29;20445;-81
2022/01/16 08:57:59;;;;;;;135.75;56.15;;;;;;;;;;4917795;29;20489;-81
2022/01/16 09:00:26;;;;;;;125.23;53.97;;;;;;;;;;4871150;29;20520;-80
2022/01/16 09:02:52;;;;;;;120.10;52.28;;;;;;;;;;4884546;29;20472;-78
2022/01/16 09:05:18;;;;;;;106.90;50.70;;;;;;;;;;4885133;29;20429;-79
2022/01/16 09:07:44;;;;;;;98.37;47.43;;;;;;;;;;4901914;29;20433;-80
2022/01/16 09:10:11;;;;;;;94.53;47.53;;;;;;;;;;4871885;29;20429;-79
2022/01/16 09:12:37;;;;;;;91.70;46.20;;;;;;;;;;4871587;29;20526;-80
2022/01/16 09:15:08;;;;;;;80.82;42.08;;;;;;;;;;4881969;29;20559;-80
2022/01/16 09:17:34;;;;;;;77.07;41.50;;;;;;;;;;4901562;29;20485;-79
2022/01/16 09:20:00;;;;;;;70.78;39.40;;;;;;;;;;4889121;29;20504;-80
2022/01/16 09:22:26;;;;;;;63.53;37.75;;;;;;;;;;4889944;29;20455;-80
2022/01/16 09:24:53;;;;;;;61.03;35.67;;;;;;;;;;4908025;29;20445;-80
2022/01/16 09:27:19;;;;;;;56.92;34.30;;;;;;;;;;4886925;29;20445;-79
2022/01/16 09:29:45;;;;;;;53.42;33.35;;;;;;;;;;4884721;29;20952;-79
2022/01/16 09:32:13;;;;;;;54.47;33.40;;;;;;;;;;4873402;29;20472;-80
2022/01/16 09:34:39;;;;;;;54.22;32.95;;;;;;;;;;4868738;29;20465;-81
2022/01/16 09:37:08;;;;;;;55.20;31.50;;;;;;;;;;4872614;29;20441;-81
2022/01/16 09:39:35;;;;;;;52.88;30.45;;;;;;;;;;4892395;29;20446;-80
2022/01/16 09:42:03;;;;;;;51.33;31.25;;;;;;;;;;4875791;29;20438;-81
2022/01/16 09:44:29;;;;;;;50.38;30.48;;;;;;;;;;4884074;29;20439;-80
2022/01/16 09:46:57;;;;;;;48.55;29.67;;;;;;;;;;4878433;29;20441;-80
2022/01/16 09:49:24;;;;;;;45.47;29.15;;;;;;;;;;4888480;29;20459;-79
2022/01/16 09:51:52;;;;;;;46.08;28.00;;;;;;;;;;4872878;29;20434;-81
2022/01/16 09:54:18;;;;;;;45.35;28.70;;;;;;;;;;4892178;29;20521;-80
2022/01/16 09:56:45;;;;;;;43.42;26.95;;;;;;;;;;4924625;28;20434;-81
2022/01/16 09:59:11;;;;;;;44.22;27.88;;;;;;;;;;4927518;28;20468;-81
2022/01/16 10:01:38;;;;;;;43.47;27.17;;;;;;;;;;4911290;28;20447;-81
2022/01/16 10:04:04;;;;;;;44.45;27.08;;;;;;;;;;4938910;29;20496;-81
2022/01/16 10:06:31;;;;;;;44.70;26.85;;;;;;;;;;4922869;28;20477;-81
2022/01/16 10:08:57;;;;;;;41.63;25.85;;;;;;;;;;4908754;29;20433;-81
2022/01/16 10:11:39;;;;;;;42.47;26.83;;;;;;;;;;4905350;29;20434;-81
2022/01/16 10:14:14;;;;;;;42.97;26.15;;;;;;;;;;4920362;29;20435;-81
2022/01/16 10:16:41;;;;;;;42.75;25.58;;;;;;;;;;4911643;28;20543;-80
2022/01/16 10:19:27;;;;;;;45.55;26.75;;;;;;;;;;4905507;28;20931;-80
2022/01/16 10:22:13;;;;;;;41.78;25.25;;;;;;;;;;4922221;29;20425;-80
2022/01/16 10:24:41;;;;;;;42.20;25.67;;;;;;;;;;4932841;29;20448;-81
2022/01/16 10:27:12;;;;;;;39.80;24.70;;;;;;;;;;4939074;28;20911;-81
2022/01/16 10:29:42;;;;;;;41.95;25.10;;;;;;;;;;4937113;29;20492;-80
2022/01/16 10:32:17;;;;;;;38.50;22.50;;;;;;;;;;4937255;29;20434;-80
2022/01/16 10:34:44;;;;;;;40.58;23.05;;;;;;;;;;4917716;29;20465;-80
2022/01/16 10:37:30;;;;;;;41.70;22.02;;;;;;;;;;4921723;29;20421;-79
2022/01/16 10:40:06;;;;;;;37.95;22.20;;;;;;;;;;4907999;29;20856;-80
2022/01/16 10:42:33;;;;;;;34.42;20.40;;;;;;;;;;4920518;28;20445;-80
2022/01/16 10:45:02;;;;;;;37.90;20.08;;;;;;;;;;4921002;28;20500;-80
2022/01/16 10:47:30;;;;;;;31.87;19.90;;;;;;;;;;4920785;29;20445;-80
2022/01/16 10:50:01;;;;;;;33.58;19.33;;;;;;;;;;4922165;28;20473;-80
2022/01/16 10:52:27;;;;;;;36.00;18.77;;;;;;;;;;4915036;29;21111;-80
2022/01/16 10:54:54;;;;;;;31.52;17.73;;;;;;;;;;4938005;28;20454;-81
2022/01/16 10:57:20;;;;;;;31.63;18.17;;;;;;;;;;4919127;28;20434;-81
2022/01/16 10:59:46;;;;;;;34.25;16.83;;;;;;;;;;4921593;28;20441;-81
2022/01/16 11:02:12;;;;;;;27.27;16.07;;;;;;;;;;4904548;29;21265;-81
2022/01/16 11:04:38;;;;;;;26.75;16.45;;;;;;;;;;4920923;28;20440;-81
2022/01/16 11:07:05;;;;;;;31.73;16.47;;;;;;;;;;4938012;29;20439;-82
2022/01/16 11:09:32;;;;;;;32.10;16.40;;;;;;;;;;4919896;28;20437;-81
2022/01/16 11:11:59;;;;;;;31.58;15.57;;;;;;;;;;4923527;28;20540;-81
2022/01/16 11:14:30;;;;;;;27.27;14.47;;;;;;;;;;4927379;29;20530;-82
2022/01/16 11:16:56;;;;;;;25.35;13.90;;;;;;;;;;4919897;28;20448;-82
2022/01/16 11:19:24;;;;;;;27.05;13.70;;;;;;;;;;4921621;29;20434;-82
2022/01/16 11:21:57;;;;;;;29.92;13.85;;;;;;;;;;4946810;28;20437;-82
2022/01/16 11:26:51;;;;;;;26.92;13.07;;;;;;;;;;4917035;28;20446;-82
2022/01/16 11:29:17;;;;;;;25.70;12.60;;;;;;;;;;4922820;29;20944;-84
2022/01/16 11:31:44;;;;;;;22.00;12.23;;;;;;;;;;4924126;29;20464;-82
2022/01/16 11:34:10;;;;;;;26.75;12.82;;;;;;;;;;4908639;28;20477;-84
2022/01/16 11:36:36;;;;;;;21.90;11.30;;;;;;;;;;4924599;29;20433;-86
2022/01/16 11:39:04;;;;;;;24.27;11.30;;;;;;;;;;4909653;28;20436;-84
2022/01/16 11:41:34;;;;;;;25.23;11.40;;;;;;;;;;4922907;29;20569;-84
2022/01/16 11:44:01;;;;;;;26.83;11.75;;;;;;;;;;4919442;29;20480;-86
2022/01/16 11:46:28;;;;;;;24.33;11.68;;;;;;;;;;4938101;28;20421;-84
2022/01/16 11:48:55;;;;;;;25.08;11.20;;;;;;;;;;4926637;29;20425;-85
2022/01/16 11:51:34;;;;;;;22.45;11.10;;;;;;;;;;4937983;28;20441;-87
2022/01/16 11:54:06;;;;;;;19.52;11.63;;;;;;;;;;4915478;28;20442;-84
2022/01/16 11:59:11;;;;;;;27.13;11.57;;;;;;;;;;4941192;28;20499;-83
2022/01/16 12:01:43;;;;;;;25.90;11.82;;;;;;;;;;4923354;29;20556;-84
2022/01/16 12:04:28;;;;;;;21.13;11.68;;;;;;;;;;4908101;28;20442;-84
2022/01/16 12:07:15;;;;;;;20.20;10.52;;;;;;;;;;4934494;28;20442;-86
2022/01/16 12:12:16;;;;;;;22.48;10.45;;;;;;;;;;4940091;29;20434;-83
2022/01/16 12:15:00;;;;;;;18.93;9.87;;;;;;;;;;4924341;29;20520;-82
2022/01/16 12:17:49;;;;;;;16.30;10.07;;;;;;;;;;4919910;28;20441;-83
2022/01/16 12:20:15;;;;;;;20.73;9.50;;;;;;;;;;4920716;28;20510;-84
2022/01/16 12:22:45;;;;;;;20.23;9.27;;;;;;;;;;4924193;28;20594;-83
2022/01/16 12:25:23;;;;;;;19.75;9.68;;;;;;;;;;4922449;29;20441;-83
2022/01/16 12:27:53;;;;;;;17.40;9.10;;;;;;;;;;4919382;29;20438;-84
2022/01/16 12:30:24;;;;;;;20.52;9.45;;;;;;;;;;4937361;28;20448;-84
2022/01/16 12:32:59;;;;;;;19.45;9.20;;;;;;;;;;4918580;29;20509;-84
2022/01/16 12:35:46;;;;;;;17.80;9.73;;;;;;;;;;4936877;29;20465;-84
2022/01/16 12:38:17;;;;;;;19.25;9.68;;;;;;;;;;4922652;29;20446;-84
2022/01/16 12:40:44;;;;;;;19.00;9.40;;;;;;;;;;4922676;28;20442;-84
2022/01/16 12:43:26;;;;;;;18.70;9.32;;;;;;;;;;4923936;29;20438;-84
2022/01/16 12:45:52;;;;;;;18.10;10.25;;;;;;;;;;4926102;28;20433;-84
2022/01/16 12:48:18;;;;;;;18.33;9.60;;;;;;;;;;4920420;28;20474;-83
2022/01/16 12:50:44;;;;;;;17.27;9.70;;;;;;;;;;4908315;29;20449;-83
2022/01/16 12:53:11;;;;;;;20.30;9.90;;;;;;;;;;4904503;29;20446;-84
2022/01/16 12:55:37;;;;;;;22.20;10.27;;;;;;;;;;4926355;28;20448;-83
2022/01/16 12:58:17;;;;;;;19.65;9.13;;;;;;;;;;4919190;28;20486;-84
2022/01/16 13:00:59;;;;;;;18.90;9.70;;;;;;;;;;4925279;29;20442;-84
2022/01/16 13:03:29;;;;;;;19.38;9.65;;;;;;;;;;4936500;28;20802;-83
2022/01/16 13:06:13;;;;;;;20.00;9.13;;;;;;;;;;4924077;29;20516;-84
2022/01/16 13:08:55;;;;;;;20.00;9.52;;;;;;;;;;4912180;28;20437;-84
2022/01/16 13:11:22;;;;;;;19.48;9.75;;;;;;;;;;4916704;28;20960;-83
2022/01/16 13:13:48;;;;;;;19.75;9.93;;;;;;;;;;4935553;28;20438;-84
2022/01/16 13:16:24;;;;;;;17.83;9.38;;;;;;;;;;4911288;28;21837;-84
2022/01/16 13:19:01;;;;;;;19.50;9.20;;;;;;;;;;4938968;28;20486;-84
2022/01/16 13:21:34;;;;;;;20.77;9.30;;;7.80;99.90;;;;;;4921033;29;20446;-84
2022/01/16 13:24:00;;;;;;;23.02;9.25;;;;;;;;;;4920993;28;20438;-84
2022/01/16 13:26:27;;;;;;;19.63;9.32;;;;;;;;;;4924915;29;20847;-84
2022/01/16 13:29:01;;;;;;;19.38;9.13;;;;;;;;;;4918311;29;20427;-83
2022/01/16 13:31:27;;;;;;;24.20;9.85;;;;;;;;;;4936096;29;21296;-83
2022/01/16 13:34:09;;;;;;;19.50;9.65;;;;;;;;;;4919156;29;20483;-84
2022/01/16 13:36:36;;;;;;;18.65;9.15;;;;;;;;;;4919886;29;20466;-84
2022/01/16 13:39:03;;;;;;;19.17;9.55;;;;;;;;;;4924461;29;20429;-83
2022/01/16 13:41:29;;;;;;;21.52;9.30;;;;;;;;;;4923326;28;20441;-84
2022/01/16 13:43:55;;;;;;;22.23;9.40;;;;;;;;;;4902769;29;20587;-83
2022/01/16 13:46:21;;;;;;;21.85;9.63;;;;;;;;;;4940039;28;20433;-83
2022/01/16 13:48:48;;;;;;;16.77;9.18;;;;;;;;;;4924473;28;20437;-83
2022/01/16 13:51:14;;;;;;;18.48;9.27;;;;;;;;;;4924134;29;20472;-83
2022/01/16 13:53:42;;;;;;;17.55;9.60;;;;;;;;;;4922438;28;20433;-83
2022/01/16 13:56:16;;;;;;;20.70;9.38;;;;;;;;;;4923958;29;20451;-83
2022/01/16 13:58:47;;;;;;;19.42;8.82;;;;;;;;;;4920217;29;20546;-83
2022/01/16 14:01:18;;;;;;;19.70;9.43;;;;;;;;;;4921498;29;20451;-83
2022/01/16 14:03:51;;;;;;;20.95;9.30;;;;;;;;;;4918280;29;20446;-83
2022/01/16 14:06:17;;;;;;;20.15;9.18;;;;;;;;;;4916986;29;20491;-84
2022/01/16 14:08:50;;;;;;;24.02;9.60;;;;;;;;;;4921151;29;20447;-84
2022/01/16 14:11:18;;;;;;;22.73;9.20;;;;;;;;;;4935450;28;20451;-84
2022/01/16 14:13:52;;;;;;;20.40;9.38;;;;;;;;;;4891702;29;20442;-84
2022/01/16 14:16:20;;;;;;;19.33;9.05;;;;;;;;;;4915894;29;20447;-84
2022/01/16 14:24:02;;;;;;;22.85;10.45;;;;;;;;;;4922733;29;20454;-83
2022/01/16 14:26:28;;;;;;;22.27;11.68;;;;;;;;;;4937447;29;20445;-84
2022/01/16 14:28:54;;;;;;;25.55;11.77;;;;;;;;;;4912615;29;20439;-84
2022/01/16 14:31:20;;;;;;;29.13;12.50;;;;;;;;;;4914960;29;20806;-84
2022/01/16 14:33:50;;;;;;;26.65;12.65;;;;;;;;;;4886480;29;20439;-85
2022/01/16 14:36:17;;;;;;;27.75;12.20;;;7.30;99.90;;;;;;4893589;29;20432;-84
2022/01/16 14:38:43;;;;;;;26.77;12.17;;;;;;;;;;4907054;29;20489;-84
2022/01/16 14:41:12;;;;;;;21.47;11.60;;;;;;;;;;4937588;29;20589;-83
2022/01/16 14:43:54;;;;;;;27.38;12.85;;;;;;;;;;4939037;29;20510;-84
2022/01/16 14:46:21;;;;;;;25.88;13.85;;;;;;;;;;4917650;29;20513;-84
2022/01/16 14:48:47;;;;;;;22.65;12.68;;;;;;;;;;4916142;29;20475;-84
2022/01/16 14:51:16;;;;;;;22.80;12.63;;;;;;;;;;4931357;29;20435;-85
2022/01/16 14:53:42;;;;;;;25.75;12.40;;;;;;;;;;4914333;29;20444;-84
2022/01/16 14:56:08;;;;;;;23.15;11.98;;;;;;;;;;4903564;29;20439;-85
2022/01/16 14:58:34;;;;;;;20.93;11.23;;;;;;;;;;4932741;29;20658;-84
2022/01/16 15:01:00;;;;;;;21.35;11.82;;;;;;;;;;4922732;29;20504;-84
2022/01/16 15:03:27;;;;;;;26.50;13.40;;;;;;;;;;4918826;29;20458;-83
2022/01/16 15:05:53;;;;;;;24.92;12.52;;;;;;;;;;4920181;29;20459;-86
2022/01/16 15:08:20;;;;;;;21.25;12.18;;;;;;;;;;4901982;29;20415;-84
2022/01/16 15:10:46;;;;;;;23.90;13.32;;;;;;;;;;4895004;29;20441;-84
2022/01/16 15:13:12;;;;;;;22.50;13.05;;;;;;;;;;4935893;29;20438;-82